createdAt,value
2018-10-03T00:00:31.721Z,1.52
2018-10-03T00:03:00.171Z,1.00
2018-10-03T00:05:28.776Z,1.15
2018-10-03T00:07:57.251Z,1.10
2018-10-03T00:10:25.356Z,1.20
2018-10-03T00:12:53.785Z,0.80
2018-10-03T00:15:22.216Z,0.98
2018-10-03T00:17:50.669Z,1.20
2018-10-03T00:20:19.206Z,1.00
2018-10-03T00:22:47.826Z,1.00
2018-10-03T00:25:16.255Z,1.02
2018-10-03T00:27:44.689Z,0.87
2018-10-03T00:30:13.113Z,1.20
2018-10-03T00:32:41.549Z,1.30
2018-10-03T00:35:09.957Z,0.93
2018-10-03T00:37:38.478Z,1.10
2018-10-03T00:40:06.929Z,1.00
2018-10-03T00:42:35.372Z,1.20
2018-10-03T00:45:03.837Z,1.00
2018-10-03T00:47:32.257Z,1.10
2018-10-03T00:50:00.365Z,1.27
2018-10-03T00:52:28.541Z,1.00
2018-10-03T00:54:56.956Z,1.05
2018-10-03T00:57:25.387Z,1.85
2018-10-03T00:59:53.852Z,0.88
2018-10-03T01:02:22.342Z,1.10
2018-10-03T01:04:50.796Z,1.23
2018-10-03T01:07:19.389Z,1.00
2018-10-03T01:09:47.873Z,1.33
2018-10-03T01:12:16.448Z,1.35
2018-10-03T01:14:44.888Z,1.07
2018-10-03T01:17:13.344Z,1.10
2018-10-03T01:19:41.817Z,1.20
2018-10-03T01:22:09.923Z,1.33
2018-10-03T01:24:38.370Z,1.10
2018-10-03T01:27:06.832Z,1.50
2018-10-03T01:29:35.355Z,1.27
2018-10-03T01:32:03.758Z,1.22
2018-10-03T01:34:32.204Z,1.10
2018-10-03T01:37:00.894Z,1.33
2018-10-03T01:39:29.677Z,1.40
2018-10-03T01:41:58.413Z,1.30
2018-10-03T01:44:26.928Z,1.32
2018-10-03T01:46:55.025Z,1.20
2018-10-03T01:49:23.489Z,1.33
2018-10-03T01:51:51.898Z,1.60
2018-10-03T01:54:20.317Z,1.67
2018-10-03T01:56:48.748Z,1.25
2018-10-03T01:59:17.165Z,1.22
2018-10-03T02:01:45.569Z,1.37
2018-10-03T02:04:14.013Z,1.50
2018-10-03T02:06:42.117Z,1.37
2018-10-03T02:09:10.541Z,1.23
2018-10-03T02:11:38.969Z,1.10
2018-10-03T02:14:07.404Z,1.70
2018-10-03T02:16:35.848Z,1.70
2018-10-03T02:19:04.453Z,1.60
2018-10-03T02:21:32.969Z,1.50
2018-10-03T02:24:01.417Z,1.10
2018-10-03T02:26:29.516Z,1.50
2018-10-03T02:28:57.941Z,1.60
2018-10-03T02:31:26.473Z,1.15
2018-10-03T02:33:54.948Z,1.53
2018-10-03T02:36:23.341Z,1.20
2018-10-03T02:38:51.896Z,1.22
2018-10-03T02:41:20.299Z,1.53
2018-10-03T02:43:48.817Z,1.35
2018-10-03T02:46:16.952Z,1.33
2018-10-03T02:48:45.497Z,1.47
2018-10-03T02:51:13.945Z,1.37
2018-10-03T02:53:42.384Z,1.47
2018-10-03T02:56:10.887Z,1.42
2018-10-03T02:58:39.297Z,2.40
2018-10-03T03:01:07.759Z,1.52
2018-10-03T03:03:36.209Z,1.40
2018-10-03T03:06:04.337Z,1.40
2018-10-03T03:08:32.771Z,1.20
2018-10-03T03:11:01.345Z,1.15
2018-10-03T03:13:29.453Z,1.17
2018-10-03T03:15:57.916Z,1.40
2018-10-03T03:18:26.318Z,1.05
2018-10-03T03:20:54.753Z,1.30
2018-10-03T03:23:23.154Z,1.30
2018-10-03T03:25:51.573Z,1.50
2018-10-03T03:28:19.962Z,1.32
2018-10-03T03:30:48.452Z,1.50
2018-10-03T03:33:16.952Z,1.42
2018-10-03T03:35:45.453Z,1.30
2018-10-03T03:38:13.825Z,1.30
2018-10-03T03:40:42.360Z,1.53
2018-10-03T03:43:10.840Z,1.22
2018-10-03T03:45:39.281Z,1.45
2018-10-03T03:48:08.008Z,1.40
2018-10-03T03:50:36.157Z,1.50
2018-10-03T03:53:04.545Z,1.40
2018-10-03T03:55:33.057Z,1.15
2018-10-03T03:58:01.481Z,1.02
2018-10-03T04:00:29.934Z,1.10
2018-10-03T04:02:58.377Z,0.98
2018-10-03T04:05:26.826Z,1.00
2018-10-03T04:07:54.940Z,1.20
2018-10-03T04:10:23.367Z,1.15
2018-10-03T04:12:52.437Z,0.95
2018-10-03T04:15:20.952Z,1.00
2018-10-03T04:17:49.390Z,1.42
2018-10-03T04:20:17.809Z,1.27
2018-10-03T04:22:46.284Z,1.35
2018-10-03T04:25:14.413Z,1.17
2018-10-03T04:27:42.840Z,0.88
2018-10-03T04:30:11.264Z,1.02
2018-10-03T04:32:39.873Z,0.78
2018-10-03T04:35:09.151Z,1.00
2018-10-03T04:37:37.593Z,0.80
2018-10-03T04:40:06.843Z,0.90
2018-10-03T04:42:35.285Z,0.80
2018-10-03T04:45:03.416Z,1.10
2018-10-03T04:47:31.847Z,1.05
2018-10-03T04:50:00.240Z,0.72
2018-10-03T04:52:29.184Z,0.88
2018-10-03T04:54:57.281Z,0.62
2018-10-03T04:57:25.778Z,0.68
2018-10-03T04:59:54.363Z,1.00
2018-10-03T05:02:22.870Z,0.90
2018-10-03T05:04:51.005Z,0.70
2018-10-03T05:07:19.437Z,0.80
2018-10-03T05:09:48.500Z,0.80
2018-10-03T05:12:17.455Z,0.90
2018-10-03T05:14:45.868Z,0.80
2018-10-03T05:17:14.464Z,1.00
2018-10-03T05:19:42.943Z,0.88
2018-10-03T05:22:11.077Z,0.98
2018-10-03T05:24:39.489Z,0.90
2018-10-03T05:27:08.137Z,0.78
2018-10-03T05:29:36.559Z,0.60
2018-10-03T05:32:05.027Z,1.27
2018-10-03T05:34:33.501Z,0.60
2018-10-03T05:37:01.992Z,0.70
2018-10-03T05:39:30.439Z,0.80
2018-10-03T05:41:58.843Z,0.60
2018-10-03T05:44:27.281Z,0.72
2018-10-03T05:46:55.693Z,0.80
2018-10-03T05:49:24.122Z,0.60
2018-10-03T05:51:52.623Z,0.95
2018-10-03T05:54:20.748Z,0.60
2018-10-03T05:56:49.222Z,0.62
2018-10-03T05:59:17.704Z,0.82
2018-10-03T06:01:46.129Z,0.60
2018-10-03T06:04:14.333Z,0.78
2018-10-03T06:06:42.782Z,0.70
2018-10-03T06:09:12.813Z,0.50
2018-10-03T06:11:42.322Z,0.82
2018-10-03T06:14:11.125Z,0.60
2018-10-03T06:16:39.582Z,0.60
2018-10-03T06:19:09.452Z,0.65
2018-10-03T06:21:38.136Z,0.60
2018-10-03T06:25:31.013Z,0.65
2018-10-03T06:27:59.531Z,0.60
2018-10-03T06:30:27.913Z,0.55
2018-10-03T06:32:56.311Z,0.50
2018-10-03T06:35:24.749Z,0.60
2018-10-03T06:37:53.581Z,0.60
2018-10-03T06:40:21.742Z,1.00
2018-10-03T06:42:50.145Z,0.68
2018-10-03T06:45:18.560Z,0.80
2018-10-03T06:47:47.000Z,0.80
2018-10-03T06:50:15.413Z,0.68
2018-10-03T06:52:44.577Z,0.45
2018-10-03T06:55:12.997Z,0.50
2018-10-03T06:57:41.394Z,0.60
2018-10-03T07:00:09.976Z,0.70
2018-10-03T07:02:38.748Z,0.62
2018-10-03T07:05:07.254Z,0.40
2018-10-03T07:07:35.753Z,0.30
2018-10-03T07:10:04.227Z,0.47
2018-10-03T07:12:32.692Z,0.65
2018-10-03T07:15:01.117Z,0.60
2018-10-03T07:17:29.577Z,0.47
2018-10-03T07:19:58.038Z,0.30
2018-10-03T07:22:26.147Z,0.50
2018-10-03T07:24:54.548Z,0.60
2018-10-03T07:27:23.042Z,0.40
2018-10-03T07:29:51.482Z,0.47
2018-10-03T07:32:19.717Z,0.50
2018-10-03T07:34:48.025Z,0.50
2018-10-03T07:37:16.147Z,0.40
2018-10-03T07:39:44.573Z,0.50
2018-10-03T07:42:13.010Z,0.50
2018-10-03T07:44:41.452Z,0.30
2018-10-03T07:47:09.896Z,0.50
2018-10-03T07:49:38.343Z,0.40
2018-10-03T07:52:06.669Z,0.37
2018-10-03T07:54:35.073Z,0.33
2018-10-03T07:57:03.537Z,0.47
2018-10-03T07:59:32.216Z,0.30
2018-10-03T08:02:00.718Z,0.60
2018-10-03T08:04:33.023Z,0.30
2018-10-03T08:07:01.451Z,0.30
2018-10-03T08:12:54.777Z,0.42
2018-10-03T08:15:30.625Z,0.50
2018-10-03T08:17:59.161Z,0.47
2018-10-03T08:20:27.816Z,0.60
2018-10-03T08:22:56.253Z,0.35
2018-10-03T08:28:55.036Z,0.50
2018-10-03T08:31:24.294Z,0.40
2018-10-03T08:33:52.745Z,0.50
2018-10-03T08:36:21.166Z,0.50
2018-10-03T08:38:49.393Z,0.37
2018-10-03T08:41:17.744Z,0.33
2018-10-03T08:43:45.874Z,0.50
2018-10-03T08:46:14.272Z,0.30
2018-10-03T08:48:42.840Z,0.47
2018-10-03T08:51:11.417Z,0.30
2018-10-03T08:53:39.969Z,0.30
2018-10-03T08:56:08.429Z,0.40
2018-10-03T08:58:36.716Z,0.55
2018-10-03T09:01:04.737Z,0.30
2018-10-03T09:03:33.561Z,0.30
2018-10-03T09:06:01.945Z,0.42
2018-10-03T09:08:30.371Z,0.50
2018-10-03T09:10:59.498Z,0.40
2018-10-03T09:13:28.013Z,0.47
2018-10-03T09:15:56.574Z,0.35
2018-10-03T09:18:24.718Z,0.40
2018-10-03T09:20:53.165Z,0.30
2018-10-03T09:23:21.569Z,0.40
2018-10-03T09:25:50.029Z,0.78
2018-10-03T09:28:18.470Z,0.30
2018-10-03T09:30:46.732Z,0.40
2018-10-03T09:33:15.226Z,0.30
2018-10-03T09:35:43.766Z,0.30
2018-10-03T09:38:12.165Z,0.37
2018-10-03T09:40:41.861Z,0.65
2018-10-03T09:43:10.549Z,0.30
2018-10-03T09:45:38.967Z,0.30
2018-10-03T09:48:07.369Z,0.30
2018-10-03T09:50:35.794Z,0.30
2018-10-03T09:53:04.192Z,0.45
2018-10-03T09:55:32.629Z,0.40
2018-10-03T09:58:01.042Z,0.40
2018-10-03T10:00:34.714Z,0.50
2018-10-03T10:03:02.696Z,0.30
2018-10-03T10:05:30.866Z,3.40
2018-10-03T10:07:59.313Z,4.53
2018-10-03T10:10:27.754Z,0.50
2018-10-03T10:12:56.287Z,0.50
2018-10-03T10:15:24.393Z,0.40
2018-10-03T10:17:53.293Z,0.68
2018-10-03T10:20:22.047Z,0.42
2018-10-03T10:22:50.729Z,0.50
2018-10-03T10:25:19.000Z,0.40
2018-10-03T10:27:47.498Z,0.45
2018-10-03T10:30:16.300Z,0.45
2018-10-03T10:32:44.965Z,0.60
2018-10-03T10:35:13.664Z,0.30
2018-10-03T10:37:42.135Z,0.50
2018-10-03T10:40:10.624Z,0.55
2018-10-03T10:42:39.033Z,0.50
2018-10-03T10:45:07.701Z,0.40
2018-10-03T10:47:35.848Z,0.30
2018-10-03T10:50:04.315Z,1.32
2018-10-03T10:52:32.777Z,0.30
2018-10-03T10:55:01.174Z,0.40
2018-10-03T10:57:29.626Z,0.50
2018-10-03T10:59:58.097Z,0.37
2018-10-03T11:02:26.641Z,0.50
2018-10-03T11:04:55.026Z,0.25
2018-10-03T11:07:23.517Z,0.40
2018-10-03T11:09:51.719Z,0.40
2018-10-03T11:12:20.142Z,0.50
2018-10-03T11:14:48.312Z,0.35
2018-10-03T11:17:16.818Z,0.30
2018-10-03T11:19:45.213Z,0.42
2018-10-03T11:22:13.875Z,0.40
2018-10-03T11:24:42.506Z,0.35
2018-10-03T11:27:11.432Z,0.20
2018-10-03T11:29:39.838Z,0.40
2018-10-03T11:32:08.330Z,0.20
2018-10-03T11:34:36.780Z,0.25
2018-10-03T11:37:04.954Z,0.15
2018-10-03T11:39:33.489Z,0.35
2018-10-03T11:42:01.884Z,0.28
2018-10-03T11:44:30.392Z,0.20
2018-10-03T11:46:58.792Z,0.40
2018-10-03T11:49:27.232Z,0.15
2018-10-03T11:51:55.755Z,0.20
2018-10-03T11:54:24.212Z,0.30
2018-10-03T11:56:52.641Z,0.30
2018-10-03T11:59:21.150Z,0.40
2018-10-03T12:01:49.527Z,0.25
2018-10-03T12:04:17.972Z,0.23
2018-10-03T12:06:46.385Z,0.40
2018-10-03T12:09:14.879Z,0.37
2018-10-03T12:11:43.015Z,0.40
2018-10-03T12:14:11.593Z,0.40
2018-10-03T12:16:40.513Z,0.30
2018-10-03T12:19:08.975Z,0.60
2018-10-03T12:21:37.068Z,0.50
2018-10-03T12:24:05.558Z,0.50
2018-10-03T12:26:34.178Z,0.50
2018-10-03T12:29:02.604Z,0.75
2018-10-03T12:31:31.061Z,0.60
2018-10-03T12:33:59.690Z,0.70
2018-10-03T12:36:28.140Z,0.70
2018-10-03T12:38:56.694Z,0.70
2018-10-03T12:41:25.732Z,0.90
2018-10-03T12:43:54.308Z,0.50
2018-10-03T12:46:24.051Z,0.78
2018-10-03T12:48:52.500Z,0.70
2018-10-03T12:51:20.898Z,1.00
2018-10-03T12:53:49.021Z,0.70
2018-10-03T12:56:18.421Z,0.62
2018-10-03T12:58:46.970Z,0.98
2018-10-03T13:01:15.550Z,0.80
2018-10-03T13:03:43.634Z,0.40
2018-10-03T13:06:12.117Z,0.70
2018-10-03T13:08:40.896Z,0.72
2018-10-03T13:11:09.767Z,0.70
2018-10-03T13:13:38.310Z,0.70
2018-10-03T13:16:06.925Z,0.78
2018-10-03T13:18:35.361Z,0.80
2018-10-03T13:21:03.818Z,0.78
2018-10-03T13:23:32.253Z,1.02
2018-10-03T13:26:00.686Z,0.85
2018-10-03T13:28:29.326Z,0.90
2018-10-03T13:30:57.756Z,0.70
2018-10-03T13:33:26.144Z,0.93
2018-10-03T13:35:54.916Z,0.80
2018-10-03T13:38:23.029Z,1.10
2018-10-03T13:40:52.719Z,1.40
2018-10-03T13:43:21.237Z,0.95
2018-10-03T13:45:49.373Z,0.80
2018-10-03T13:48:17.759Z,0.88
2018-10-03T13:50:46.209Z,1.10
2018-10-03T13:53:14.635Z,0.62
2018-10-03T13:55:42.765Z,0.70
2018-10-03T13:58:10.856Z,0.70
2018-10-03T14:00:39.563Z,1.25
2018-10-03T14:03:07.961Z,0.85
2018-10-03T14:05:36.410Z,0.70
2018-10-03T14:08:05.094Z,0.65
2018-10-03T14:10:34.025Z,0.70
2018-10-03T14:13:03.101Z,0.70
2018-10-03T14:15:32.005Z,0.50
2018-10-03T14:18:00.453Z,0.50
2018-10-03T14:20:29.461Z,0.50
2018-10-03T14:22:57.873Z,0.55
2018-10-03T14:25:26.365Z,0.45
2018-10-03T14:27:55.066Z,0.68
2018-10-03T14:30:23.766Z,0.90
2018-10-03T14:32:52.208Z,0.53
2018-10-03T14:35:20.645Z,0.70
2018-10-03T14:37:49.068Z,0.53
2018-10-03T14:40:17.546Z,0.60
2018-10-03T14:42:46.186Z,0.70
2018-10-03T14:45:14.290Z,0.62
2018-10-03T14:47:42.713Z,0.75
2018-10-03T14:50:11.109Z,0.50
2018-10-03T14:52:39.599Z,0.60
2018-10-03T14:55:08.045Z,0.60
2018-10-03T14:57:36.651Z,0.78
2018-10-03T15:00:05.609Z,1.15
2018-10-03T15:02:34.046Z,1.10
2018-10-03T15:05:02.569Z,1.02
2018-10-03T15:07:31.008Z,1.32
2018-10-03T15:09:59.414Z,0.80
2018-10-03T15:12:27.866Z,1.15
2018-10-03T15:14:56.262Z,0.50
2018-10-03T15:17:24.719Z,0.82
2018-10-03T15:19:53.130Z,0.60
2018-10-03T15:22:21.577Z,1.00
2018-10-03T15:24:49.680Z,0.70
2018-10-03T15:27:18.253Z,0.70
2018-10-03T15:29:46.375Z,0.90
2018-10-03T15:32:14.532Z,0.75
2018-10-03T15:34:42.949Z,0.93
2018-10-03T15:37:11.405Z,0.88
2018-10-03T15:39:39.805Z,0.90
2018-10-03T15:42:08.319Z,0.82
2018-10-03T15:44:36.732Z,0.70
2018-10-03T15:47:05.233Z,0.80
2018-10-03T15:49:33.347Z,0.60
2018-10-03T15:52:01.484Z,0.80
2018-10-03T15:54:29.941Z,0.80
2018-10-03T15:56:58.148Z,0.80
2018-10-03T15:59:26.265Z,0.88
2018-10-03T16:01:55.717Z,0.90
2018-10-03T16:04:24.251Z,0.70
2018-10-03T16:06:52.689Z,0.70
2018-10-03T16:09:21.213Z,0.88
2018-10-03T16:11:49.993Z,0.80
2018-10-03T16:14:19.088Z,0.75
2018-10-03T16:16:47.554Z,0.68
2018-10-03T16:19:15.963Z,0.57
2018-10-03T16:21:44.176Z,0.80
2018-10-03T16:24:12.912Z,0.70
2018-10-03T16:26:41.387Z,0.80
2018-10-03T16:29:09.850Z,0.90
2018-10-03T16:31:38.892Z,0.80
2018-10-03T16:34:07.589Z,0.70
2018-10-03T16:36:35.988Z,0.82
2018-10-03T16:39:05.987Z,0.80
2018-10-03T16:41:34.373Z,0.62
2018-10-03T16:44:03.001Z,0.80
2018-10-03T16:46:31.521Z,6.47
2018-10-03T16:48:59.937Z,5.75
2018-10-03T16:51:28.403Z,3.67
2018-10-03T16:53:56.910Z,3.00
2018-10-03T16:56:25.616Z,18.65
2018-10-03T16:58:53.736Z,3.67
2018-10-03T17:01:22.141Z,2.60
2018-10-03T17:03:50.680Z,2.77
2018-10-03T17:06:19.086Z,2.42
2018-10-03T17:08:47.529Z,3.35
2018-10-03T17:11:15.964Z,2.50
2018-10-03T17:13:55.494Z,2.33
2018-10-03T17:16:24.038Z,1.72
2018-10-03T17:18:52.484Z,1.50
2018-10-03T17:21:21.460Z,1.10
2018-10-03T17:23:49.957Z,0.95
2018-10-03T17:26:18.562Z,0.98
2018-10-03T17:28:46.997Z,0.93
2018-10-03T17:31:15.096Z,0.90
2018-10-03T17:33:43.554Z,1.07
2018-10-03T17:36:11.962Z,1.62
2018-10-03T17:38:40.397Z,1.27
2018-10-03T17:41:09.086Z,1.10
2018-10-03T17:43:37.212Z,1.20
2018-10-03T17:46:05.617Z,0.90
2018-10-03T17:48:34.054Z,1.07
2018-10-03T17:51:02.845Z,0.82
2018-10-03T17:53:31.312Z,0.95
2018-10-03T17:55:59.725Z,1.27
2018-10-03T17:58:28.214Z,0.90
2018-10-03T18:00:56.725Z,1.15
2018-10-03T18:03:25.165Z,1.72
2018-10-03T18:05:53.561Z,1.98
2018-10-03T18:08:21.969Z,1.70
2018-10-03T18:10:50.489Z,1.37
2018-10-03T18:13:18.678Z,1.20
2018-10-03T18:15:47.620Z,1.45
2018-10-03T18:18:16.188Z,2.10
2018-10-03T18:20:44.894Z,2.30
2018-10-03T18:23:13.860Z,1.82
2018-10-03T18:25:42.420Z,2.60
2018-10-03T18:28:10.919Z,2.67
2018-10-03T18:30:39.193Z,2.90
2018-10-03T18:33:07.744Z,2.50
2018-10-03T18:35:36.177Z,2.77
2018-10-03T18:38:04.639Z,4.15
2018-10-03T18:40:33.092Z,2.20
2018-10-03T18:43:01.489Z,2.02
2018-10-03T18:45:29.933Z,2.50
2018-10-03T18:47:58.421Z,2.75
2018-10-03T18:50:26.885Z,2.62
2018-10-03T18:52:55.288Z,2.67
2018-10-03T18:55:23.764Z,2.12
2018-10-03T18:57:52.193Z,3.67
2018-10-03T19:00:21.710Z,2.70
2018-10-03T19:02:50.109Z,3.17
2018-10-03T19:05:18.599Z,2.42
2018-10-03T19:07:47.030Z,3.08
2018-10-03T19:10:15.660Z,3.00
2018-10-03T19:12:44.102Z,2.67
2018-10-03T19:15:12.592Z,2.70
2018-10-03T19:17:40.712Z,3.40
2018-10-03T19:20:09.743Z,3.05
2018-10-03T19:22:38.305Z,2.77
2018-10-03T19:25:07.389Z,3.35
2018-10-03T19:27:36.129Z,3.05
2018-10-03T19:30:04.298Z,3.65
2018-10-03T19:32:32.692Z,2.80
2018-10-03T19:35:01.121Z,2.65
2018-10-03T19:37:29.581Z,3.08
2018-10-03T19:39:58.102Z,2.47
2018-10-03T19:42:26.501Z,3.62
2018-10-03T19:44:54.958Z,2.80
2018-10-03T19:47:23.441Z,3.00
2018-10-03T19:49:51.898Z,3.42
2018-10-03T19:52:20.329Z,3.43
2018-10-03T19:54:48.762Z,3.40
2018-10-03T19:57:17.326Z,3.12
2018-10-03T19:59:45.448Z,3.35
2018-10-03T20:02:13.860Z,2.98
2018-10-03T20:04:42.279Z,3.37
2018-10-03T20:07:10.784Z,2.00
2018-10-03T20:09:39.178Z,2.77
2018-10-03T20:12:08.023Z,2.50
2018-10-03T20:14:36.460Z,2.27
2018-10-03T20:17:04.937Z,2.93
2018-10-03T20:19:33.048Z,3.13
2018-10-03T20:22:01.486Z,2.45
2018-10-03T20:24:30.069Z,2.43
2018-10-03T20:26:58.546Z,2.67
2018-10-03T20:29:26.652Z,2.23
2018-10-03T20:31:55.125Z,2.83
2018-10-03T20:34:23.704Z,2.25
2018-10-03T20:36:52.198Z,2.60
2018-10-03T20:39:20.372Z,2.93
2018-10-03T20:41:48.877Z,2.35
2018-10-03T20:44:17.414Z,2.55
2018-10-03T20:46:45.850Z,2.60
2018-10-03T20:49:13.960Z,2.30
2018-10-03T20:51:42.424Z,2.27
2018-10-03T20:54:10.984Z,2.47
2018-10-03T20:56:39.453Z,2.15
2018-10-03T20:59:07.620Z,2.12
2018-10-03T21:01:36.022Z,1.90
2018-10-03T21:04:04.466Z,2.33
2018-10-03T21:06:32.905Z,2.33
2018-10-03T21:09:01.437Z,2.45
2018-10-03T21:11:29.846Z,2.30
2018-10-03T21:13:58.286Z,2.65
2018-10-03T21:16:26.798Z,1.80
2018-10-03T21:18:55.425Z,2.47
2018-10-03T21:21:23.873Z,2.15
2018-10-03T21:23:52.307Z,2.35
2018-10-03T21:26:20.757Z,2.00
2018-10-03T21:28:49.265Z,1.92
2018-10-03T21:31:17.713Z,1.70
2018-10-03T21:33:46.161Z,1.87
2018-10-03T21:36:14.893Z,2.15
2018-10-03T21:38:43.008Z,1.90
2018-10-03T21:41:11.524Z,2.20
2018-10-03T21:43:39.996Z,2.05
2018-10-03T21:46:08.109Z,2.25
2018-10-03T21:48:36.614Z,2.92
2018-10-03T21:51:04.737Z,2.33
2018-10-03T21:53:33.325Z,2.58
2018-10-03T21:56:01.885Z,2.27
2018-10-03T21:58:30.320Z,2.35
2018-10-03T22:00:58.410Z,2.30
2018-10-03T22:03:26.821Z,2.40
2018-10-03T22:05:55.342Z,1.92
2018-10-03T22:08:23.796Z,2.08
2018-10-03T22:10:52.201Z,2.00
2018-10-03T22:13:20.629Z,2.20
2018-10-03T22:15:49.131Z,2.35
2018-10-03T22:18:17.605Z,2.47
2018-10-03T22:20:46.026Z,2.00
2018-10-03T22:23:14.453Z,2.37
2018-10-03T22:25:42.853Z,2.25
2018-10-03T22:28:11.293Z,2.00
2018-10-03T22:30:39.741Z,1.62
2018-10-03T22:33:08.222Z,1.85
2018-10-03T22:35:36.637Z,1.95
2018-10-03T22:38:05.294Z,1.65
2018-10-03T22:40:33.437Z,1.62
2018-10-03T22:43:01.705Z,1.80
2018-10-03T22:45:29.828Z,1.80
2018-10-03T22:47:58.256Z,1.42
2018-10-03T22:50:26.718Z,1.62
2018-10-03T22:52:55.132Z,2.02
2018-10-03T22:55:23.582Z,1.95
2018-10-03T22:57:51.981Z,1.82
2018-10-03T23:00:20.433Z,1.40
2018-10-03T23:02:48.845Z,2.45
2018-10-03T23:05:16.972Z,1.77
2018-10-03T23:07:45.361Z,1.50
2018-10-03T23:10:13.832Z,2.00
2018-10-03T23:12:42.301Z,1.80
2018-10-03T23:15:10.756Z,1.72
2018-10-03T23:17:39.193Z,1.60
2018-10-03T23:20:07.700Z,1.60
2018-10-03T23:22:36.177Z,1.72
2018-10-03T23:25:04.719Z,2.30
2018-10-03T23:27:33.112Z,2.10
2018-10-03T23:30:01.580Z,1.62
2018-10-03T23:32:30.017Z,2.12
2018-10-03T23:34:58.476Z,1.92
2018-10-03T23:37:26.568Z,1.57
2018-10-03T23:39:55.005Z,2.05
2018-10-03T23:42:23.414Z,2.40
2018-10-03T23:44:51.905Z,2.50
2018-10-03T23:47:20.372Z,2.12
2018-10-03T23:49:48.842Z,1.67
2018-10-03T23:52:17.270Z,2.05
2018-10-03T23:54:45.745Z,2.52
2018-10-03T23:57:14.244Z,1.85
2018-10-03T23:59:42.687Z,2.10
